Time;durP1;ratioP1;P1;durP2;ratioP2;P2;SDS_P1;SDS_P2;PMS_P1;PMS_P2;Temp;Humidity;BMP_temperature;BMP_pressure;BME280_temperature;BME280_humidity;BME280_pressure;Samples;Min_cycle;Max_cycle;Signal;HPM_P1;HPM_P2
2022/08/15 00:00:54;;;;;;;;;;;21.30;97.50;;;;;;6228571;22;20335;-95
2022/08/15 00:03:21;;;;;;;;;;;21.40;97.00;;;;;;6200982;22;19919;-95
2022/08/15 00:05:47;;;;;;;;;;;21.30;97.60;;;;;;6204883;22;19919;-94
2022/08/15 00:08:17;;;;;;;;;;;21.30;98.10;;;;;;6203464;22;19947;-94
2022/08/15 00:10:44;;;;;;;;;;;21.30;97.40;;;;;;6203548;22;20342;-94
2022/08/15 00:13:19;;;;;;;;;;;21.30;97.70;;;;;;6204969;22;19922;-94
2022/08/15 00:15:51;;;;;;;;;;;21.30;96.90;;;;;;6221831;22;19933;-95
2022/08/15 00:18:17;;;;;;;;;;;21.30;97.60;;;;;;6216064;22;19919;-95
2022/08/15 00:20:43;;;;;;;;;;;21.20;99.50;;;;;;6214142;22;19955;-95
2022/08/15 00:23:22;;;;;;;;;;;21.20;98.10;;;;;;6213033;22;19926;-95
2022/08/15 00:25:51;;;;;;;;;;;21.30;97.20;;;;;;6207612;22;19922;-96
2022/08/15 00:28:21;;;;;;;;;;;21.20;97.10;;;;;;6206894;22;19919;-95
2022/08/15 00:31:26;;;;;;;;;;;21.10;97.20;;;;;;6207815;22;19942;-95
2022/08/15 00:33:52;;;;;;;;;;;21.10;98.60;;;;;;6212673;23;19947;-96
2022/08/15 00:36:18;;;;;;;;;;;21.00;98.90;;;;;;6189971;22;20445;-95
2022/08/15 00:38:44;;;;;;;;;;;21.00;98.50;;;;;;6190436;22;19915;-96
2022/08/15 00:43:56;;;;;;;;;;;20.90;99.90;;;;;;6224549;22;19919;-96
2022/08/15 00:46:22;;;;;;;;;;;20.80;99.30;;;;;;6192861;22;20202;-95
2022/08/15 00:48:53;;;;;;;;;;;20.80;99.70;;;;;;6189984;22;19919;-96
2022/08/15 00:51:34;;;;;;;;;;;20.80;99.50;;;;;;6191888;22;19968;-96
2022/08/15 00:54:10;;;;;;;;;;;20.80;99.00;;;;;;6187658;22;19998;-94
2022/08/15 00:56:48;;;;;;;;;;;20.70;98.90;;;;;;6194883;22;19959;-96
2022/08/15 00:59:18;;;;;;;;;;;20.80;98.40;;;;;;6219330;22;19919;-95
2022/08/15 01:01:48;;;;;;;;;;;20.80;99.00;;;;;;6199715;22;20021;-96
2022/08/15 01:04:23;;;;;;;;;;;20.70;99.40;;;;;;6228081;22;19915;-95
2022/08/15 01:06:50;;;;;;;;;;;20.70;99.50;;;;;;6202509;22;19919;-95
2022/08/15 01:09:20;;;;;;;;;;;20.60;99.80;;;;;;6219092;22;19962;-95
2022/08/15 01:11:56;;;;;;;;;;;20.70;99.90;;;;;;6193732;22;20201;-94
2022/08/15 01:14:23;;;;;;;;;;;20.70;99.90;;;;;;6193829;22;19915;-95
2022/08/15 01:16:49;;;;;;;;;;;20.60;99.90;;;;;;6222628;22;19919;-95
2022/08/15 01:19:24;;;;;;;;;;;20.60;99.90;;;;;;6181003;23;20800;-95
2022/08/15 01:22:08;;;;;;;;;;;20.60;99.80;;;;;;6130252;23;19926;-95
2022/08/15 01:24:56;;;;;;;;;;;20.60;99.50;;;;;;6159772;23;19925;-95
2022/08/15 01:27:26;;;;;;;;;;;20.60;99.40;;;;;;6184910;23;19976;-96
2022/08/15 01:29:54;;;;;;;;;;;20.60;99.90;;;;;;6137987;23;19926;-95
2022/08/15 01:32:22;;;;;;;;;;;20.50;99.90;;;;;;6121625;23;20003;-93
2022/08/15 01:34:54;;;;;;;;;;;20.50;99.90;;;;;;6077175;23;19924;-95
2022/08/15 01:37:22;;;;;;;;;;;20.50;99.90;;;;;;6050581;23;20320;-95
2022/08/15 01:39:51;;;;;;;;;;;20.50;99.90;;;;;;6055585;23;19953;-94
2022/08/15 01:42:41;;;;;;;;;;;20.60;99.90;;;;;;6052838;23;19921;-93
2022/08/15 01:45:26;;;;;;;;;;;20.50;99.90;;;;;;6080343;23;20514;-95
2022/08/15 01:48:00;;;;;;;;;;;20.50;99.90;;;;;;6073041;23;19956;-94
2022/08/15 01:50:33;;;;;;;;;;;20.40;99.90;;;;;;6085336;23;19931;-96
2022/08/15 01:53:32;;;;;;;;;;;20.60;99.90;;;;;;6166216;23;19966;-96
2022/08/15 01:56:20;;;;;;;;;;;20.60;99.90;;;;;;6132279;23;19930;-95
2022/08/15 01:59:02;;;;;;;;;;;20.70;99.90;;;;;;6133895;23;19991;-94
2022/08/15 02:01:46;;;;;;;;;;;20.70;99.60;;;;;;6132075;23;19927;-95
2022/08/15 02:04:35;;;;;;;;;;;20.70;99.10;;;;;;6251612;22;19916;-94
2022/08/15 02:07:04;;;;;;;;;;;20.70;99.90;;;;;;6196470;22;19927;-96
2022/08/15 02:09:32;;;;;;;;;;;20.70;99.80;;;;;;6197803;22;19919;-94
2022/08/15 02:12:05;;;;;;;;;;;20.70;99.90;;;;;;6226157;22;19926;-94
2022/08/15 02:14:35;;;;;;;;;;;20.70;99.20;;;;;;6222687;22;19926;-95
2022/08/15 02:17:08;;;;;;;;;;;20.70;99.90;;;;;;6224851;22;20136;-95
2022/08/15 02:19:36;;;;;;;;;;;20.70;99.50;;;;;;6197277;22;19920;-94
2022/08/15 02:22:07;;;;;;;;;;;20.80;99.10;;;;;;6199299;22;19915;-94
2022/08/15 02:24:36;;;;;;;;;;;20.80;99.00;;;;;;6196223;22;19925;-95
2022/08/15 02:27:11;;;;;;;;;;;20.80;98.80;;;;;;6195513;22;20377;-95
2022/08/15 02:29:41;;;;;;;;;;;20.80;99.90;;;;;;6197073;22;19926;-95
2022/08/15 02:32:12;;;;;;;;;;;20.80;98.90;;;;;;6198012;22;20260;-96
2022/08/15 02:34:40;;;;;;;;;;;20.80;99.30;;;;;;6202036;22;20322;-94
2022/08/15 02:37:11;;;;;;;;;;;20.70;99.90;;;;;;6228965;22;20251;-95
2022/08/15 02:39:39;;;;;;;;;;;20.70;99.20;;;;;;6220686;22;20783;-95
2022/08/15 02:42:09;;;;;;;;;;;20.70;98.70;;;;;;6250787;22;19919;-95
2022/08/15 02:44:40;;;;;;;;;;;20.60;99.20;;;;;;6221186;22;20851;-94
2022/08/15 02:47:14;;;;;;;;;;;20.70;99.40;;;;;;6218732;22;19977;-95
2022/08/15 02:49:44;;;;;;;;;;;20.60;99.90;;;;;;6193261;22;19942;-95
2022/08/15 02:52:11;;;;;;;;;;;20.50;99.90;;;;;;6198862;22;19943;-95
2022/08/15 02:54:42;;;;;;;;;;;20.50;99.90;;;;;;6222883;22;20444;-96
2022/08/15 02:57:09;;;;;;;;;;;20.40;99.90;;;;;;6204323;22;19934;-95
2022/08/15 02:59:37;;;;;;;;;;;20.40;99.90;;;;;;6204968;22;19919;-95
2022/08/15 03:02:25;;;;;;;;;;;20.30;99.90;;;;;;6170131;23;19987;-96
2022/08/15 03:04:58;;;;;;;;;;;20.30;99.90;;;;;;6141533;23;19920;-95
2022/08/15 03:07:25;;;;;;;;;;;20.10;99.90;;;;;;6138044;23;19960;-94
2022/08/15 03:09:52;;;;;;;;;;;20.20;99.90;;;;;;6143966;23;20023;-96
2022/08/15 03:12:23;;;;;;;;;;;20.30;99.90;;;;;;6167667;23;19916;-95
2022/08/15 03:15:01;;;;;;;;;;;20.10;99.90;;;;;;6142010;23;19920;-94
2022/08/15 03:17:38;;;;;;;;;;;20.00;99.90;;;;;;6157754;23;19928;-95
2022/08/15 03:20:08;;;;;;;;;;;20.00;99.90;;;;;;6159253;23;19987;-95
2022/08/15 03:22:42;;;;;;;;;;;20.00;99.90;;;;;;6158034;23;19991;-94
2022/08/15 03:25:10;;;;;;;;;;;20.00;99.90;;;;;;6133178;23;19920;-95
2022/08/15 03:27:39;;;;;;;;;;;19.90;99.90;;;;;;6124149;23;20337;-95
2022/08/15 03:30:07;;;;;;;;;;;19.80;99.90;;;;;;6159500;23;19920;-96
2022/08/15 03:32:49;;;;;;;;;;;19.80;99.90;;;;;;6165697;22;19919;-96
2022/08/15 03:35:20;;;;;;;;;;;19.80;99.90;;;;;;6207300;22;19994;-95
2022/08/15 03:37:46;;;;;;;;;;;19.70;99.90;;;;;;6226860;22;20562;-95
2022/08/15 03:40:21;;;;;;;;;;;19.70;99.90;;;;;;6200305;22;19915;-94
2022/08/15 03:43:01;;;;;;;;;;;19.70;99.90;;;;;;6240538;22;20025;-93
2022/08/15 03:45:28;;;;;;;;;;;19.60;99.90;;;;;;6181680;22;19919;-91
2022/08/15 03:48:08;;;;;;;;;;;19.60;99.90;;;;;;6190056;22;19919;-93
2022/08/15 03:50:33;;;;;;;;;;;19.60;99.90;;;;;;6179732;22;19919;-94
2022/08/15 03:53:19;;;;;;;;;;;19.60;99.90;;;;;;6212059;22;20374;-92
2022/08/15 03:55:48;;;;;;;;;;;19.50;99.90;;;;;;6206003;22;20002;-94
2022/08/15 03:58:14;;;;;;;;;;;19.50;99.90;;;;;;6207820;22;19992;-94
2022/08/15 04:00:46;;;;;;;;;;;19.40;99.90;;;;;;6205021;22;19926;-94
2022/08/15 04:03:22;;;;;;;;;;;19.30;99.90;;;;;;6183495;22;20331;-94
2022/08/15 04:05:51;;;;;;;;;;;19.40;99.90;;;;;;6182082;22;19951;-94
2022/08/15 04:08:20;;;;;;;;;;;19.40;99.90;;;;;;6184268;22;19915;-94
2022/08/15 04:10:49;;;;;;;;;;;19.30;99.90;;;;;;6184125;22;19923;-94
2022/08/15 04:13:32;;;;;;;;;;;19.30;99.90;;;;;;6182894;22;20251;-93
2022/08/15 04:15:58;;;;;;;;;;;19.30;99.90;;;;;;6188390;22;20220;-93
2022/08/15 04:18:24;;;;;;;;;;;19.30;99.90;;;;;;6181557;22;19926;-93
2022/08/15 04:20:57;;;;;;;;;;;19.30;99.90;;;;;;6207175;22;19919;-93
2022/08/15 04:23:23;;;;;;;;;;;19.30;99.90;;;;;;6232445;22;19926;-94
2022/08/15 04:25:49;;;;;;;;;;;19.30;99.90;;;;;;6184547;22;20240;-93
2022/08/15 04:28:15;;;;;;;;;;;19.20;99.90;;;;;;6184198;22;20233;-92
2022/08/15 04:30:42;;;;;;;;;;;19.20;99.90;;;;;;6184069;22;20056;-92
2022/08/15 04:33:08;;;;;;;;;;;19.20;99.90;;;;;;6187820;22;19919;-92
2022/08/15 04:35:37;;;;;;;;;;;19.20;99.90;;;;;;6187652;22;19919;-93
2022/08/15 04:38:03;;;;;;;;;;;19.20;99.90;;;;;;6185927;22;19919;-93
2022/08/15 04:40:29;;;;;;;;;;;19.20;99.90;;;;;;6183468;22;19929;-93
2022/08/15 04:43:10;;;;;;;;;;;19.30;99.90;;;;;;6179554;22;19926;-85
2022/08/15 04:46:14;;;;;;;;;;;19.20;99.90;;;;;;6235270;22;19919;-84
2022/08/15 04:48:57;;;;;;;;;;;19.30;99.90;;;;;;6238599;22;19930;-84
2022/08/15 04:52:14;;;;;;;;;;;19.30;99.90;;;;;;6209748;22;20247;-84
2022/08/15 05:39:54;;;;;;;;;;;;;;;;;;;;;
2022/08/15 07:26:59;;;;;;;;;;;22.70;96.80;;;;;;6182636;23;20533;-93
2022/08/15 07:29:44;;;;;;;;;;;22.90;96.50;;;;;;6160887;23;20354;-93
2022/08/15 07:32:21;;;;;;;;;;;23.00;97.20;;;;;;6214708;23;19974;-94
2022/08/15 07:34:54;;;;;;;;;;;23.10;96.30;;;;;;6219834;23;19915;-94
2022/08/15 07:37:22;;;;;;;;;;;23.10;95.80;;;;;;6195099;23;19930;-94
2022/08/15 07:40:09;;;;;;;;;;;23.30;96.00;;;;;;6212355;23;19998;-94
2022/08/15 07:42:41;;;;;;;;;;;23.40;95.70;;;;;;6183940;23;19920;-94
2022/08/15 07:45:16;;;;;;;;;;;23.50;95.00;;;;;;6157695;23;19923;-94
2022/08/15 07:47:56;;;;;;;;;;;23.60;94.30;;;;;;6165673;23;19939;-93
2022/08/15 07:50:42;;;;;;;;;;;23.70;93.60;;;;;;6159367;23;19928;-94
2022/08/15 07:53:31;;;;;;;;;;;23.80;93.50;;;;;;6192367;23;19923;-95
2022/08/15 07:56:04;;;;;;;;;;;23.90;93.70;;;;;;6215484;23;19934;-95
2022/08/15 07:58:32;;;;;;;;;;;24.00;93.40;;;;;;6164933;23;19924;-95
2022/08/15 08:01:17;;;;;;;;;;;24.00;93.20;;;;;;6191615;23;19990;-94
2022/08/15 08:03:45;;;;;;;;;;;24.20;93.80;;;;;;6217151;23;19923;-96
2022/08/15 08:06:36;;;;;;;;;;;24.40;93.10;;;;;;6201777;23;19923;-95
2022/08/15 08:09:29;;;;;;;;;;;24.50;92.30;;;;;;6195362;23;19944;-94
2022/08/15 08:12:24;;;;;;;;;;;24.50;92.20;;;;;;6193594;23;19955;-94
2022/08/15 08:15:08;;;;;;;;;;;24.60;91.60;;;;;;6155072;23;19989;-94
2022/08/15 08:17:41;;;;;;;;;;;24.60;90.80;;;;;;6152924;23;19919;-95
2022/08/15 08:20:24;;;;;;;;;;;24.60;90.80;;;;;;6182284;23;19915;-94
2022/08/15 08:22:55;;;;;;;;;;;24.70;91.00;;;;;;6209059;23;20396;-94
2022/08/15 08:25:26;;;;;;;;;;;24.70;91.10;;;;;;6155782;23;19920;-93
2022/08/15 08:28:17;;;;;;;;;;;24.70;91.10;;;;;;6215144;23;19929;-95
2022/08/15 08:31:05;;;;;;;;;;;24.90;91.40;;;;;;6177970;23;19916;-94
2022/08/15 08:34:03;;;;;;;;;;;25.00;90.70;;;;;;6225814;23;19924;-94
2022/08/15 08:36:52;;;;;;;;;;;25.10;90.00;;;;;;6176466;23;20339;-93
2022/08/15 08:39:45;;;;;;;;;;;25.20;89.90;;;;;;6203624;23;19928;-96
2022/08/15 08:42:31;;;;;;;;;;;25.40;89.30;;;;;;6198140;23;20054;-95
2022/08/15 08:45:16;;;;;;;;;;;25.80;87.50;;;;;;6184561;23;19924;-92
2022/08/15 08:48:00;;;;;;;;;;;26.10;87.10;;;;;;6135335;23;19916;-95
2022/08/15 08:51:02;;;;;;;;;;;26.40;82.50;;;;;;6136659;23;20350;-93
2022/08/15 08:53:56;;;;;;;;;;;26.60;81.70;;;;;;6171383;23;19920;-93
2022/08/15 08:56:26;;;;;;;;;;;26.70;78.20;;;;;;6193522;23;19999;-94
2022/08/15 08:59:16;;;;;;;;;;;27.00;76.60;;;;;;6196076;23;19925;-94
2022/08/15 09:01:43;;;;;;;;;;;27.30;79.30;;;;;;6167834;23;19921;-95
2022/08/15 09:04:13;;;;;;;;;;;27.50;73.70;;;;;;6164351;23;20325;-95
2022/08/15 09:07:03;;;;;;;;;;;27.80;72.00;;;;;;6197520;23;19923;-96
2022/08/15 09:09:37;;;;;;;;;;;28.00;63.40;;;;;;6177037;23;19924;-95
2022/08/15 09:46:57;;;;;;;;;;;29.10;56.20;;;;;;6275263;22;19923;-95
2022/08/15 09:52:42;;;;;;;;;;;29.10;52.60;;;;;;6248859;22;19955;-96
2022/08/15 10:12:07;;;;;;;;;;;29.60;54.70;;;;;;6267248;22;20238;-95
2022/08/15 10:18:20;;;;;;;;;;;;;;;;;;;;;
2022/08/15 10:24:56;;;;;;;;;;;29.00;57.40;;;;;;5963598;24;20004;-96
2022/08/15 10:27:53;;;;;;;;;;;;;;;;;;;;;
2022/08/15 10:37:56;;;;;;;;;;;;;;;;;;;;;
2022/08/15 10:47:47;;;;;;;;;;;;;;;;;;;;;
2022/08/15 11:12:02;;;;;;;;;;;;;;;;;;;;;
2022/08/15 11:14:56;;;;;;;;;;;28.00;63.60;;;;;;6273131;22;19915;-92
2022/08/15 11:17:35;;;;;;;;;;;28.20;64.60;;;;;;6225974;22;19922;-93
2022/08/15 11:20:15;;;;;;;;;;;28.10;64.50;;;;;;6157534;22;19929;-93
2022/08/15 11:23:39;;;;;;;;;;;28.10;65.20;;;;;;6253112;22;19945;-91
2022/08/15 11:26:18;;;;;;;;;;;28.20;63.70;;;;;;6196463;23;20357;-93
2022/08/15 11:29:06;;;;;;;;;;;28.20;61.00;;;;;;6184512;23;19919;-93
2022/08/15 11:31:41;;;;;;;;;;;28.10;60.60;;;;;;6203490;23;20366;-93
2022/08/15 11:40:42;;;;;;;;;;;27.80;66.60;;;;;;6168807;23;19924;-94
2022/08/15 11:43:42;;;;;;;;;;;27.50;67.90;;;;;;6205065;23;19926;-93
2022/08/15 11:46:53;;;;;;;;;;;27.40;69.00;;;;;;6229193;23;20843;-93
2022/08/15 11:49:58;;;;;;;;;;;27.20;70.30;;;;;;6170987;23;19899;-93
2022/08/15 11:52:35;;;;;;;;;;;27.10;71.90;;;;;;6172175;23;20014;-94
2022/08/15 11:55:41;;;;;;;;;;;27.20;72.90;;;;;;6187717;23;19946;-94
2022/08/15 11:58:15;;;;;;;;;;;27.30;72.80;;;;;;6159469;23;19995;-93
2022/08/15 12:01:00;;;;;;;;;;;27.40;72.10;;;;;;6148087;23;19922;-95
2022/08/15 12:03:45;;;;;;;;;;;27.50;72.20;;;;;;6196913;23;19995;-94
2022/08/15 13:27:41;;;;;;;;;;;28.40;66.90;;;;;;6262572;22;19923;-93
2022/08/15 13:30:09;;;;;;;;;;;28.20;66.90;;;;;;6190149;22;19919;-95
2022/08/15 13:32:36;;;;;;;;;;;28.10;67.90;;;;;;6185840;22;19922;-94
2022/08/15 13:35:07;;;;;;;;;;;28.10;69.70;;;;;;6240117;22;20369;-94
2022/08/15 13:37:33;;;;;;;;;;;28.10;70.00;;;;;;6187702;22;19915;-96
2022/08/15 13:40:01;;;;;;;;;;;28.10;70.80;;;;;;6216110;22;19919;-94
2022/08/15 13:42:28;;;;;;;;;;;28.00;72.10;;;;;;6180346;22;19926;-93
2022/08/15 13:44:55;;;;;;;;;;;27.90;72.90;;;;;;6215297;22;19922;-92
2022/08/15 13:47:24;;;;;;;;;;;27.80;71.60;;;;;;6208077;22;19926;-94
2022/08/15 13:49:51;;;;;;;;;;;27.80;74.40;;;;;;6214429;22;19919;-95
2022/08/15 13:52:20;;;;;;;;;;;27.80;72.40;;;;;;6213869;22;20001;-93
2022/08/15 13:54:47;;;;;;;;;;;27.70;69.60;;;;;;6216631;22;20109;-93
2022/08/15 13:57:13;;;;;;;;;;;27.70;70.40;;;;;;6192444;22;19946;-92
2022/08/15 13:59:40;;;;;;;;;;;27.70;68.10;;;;;;6243185;22;19919;-94
2022/08/15 14:02:10;;;;;;;;;;;27.70;68.00;;;;;;6195929;23;20247;-92
2022/08/15 14:04:38;;;;;;;;;;;27.60;68.00;;;;;;6237439;22;19907;-94
2022/08/15 14:07:14;;;;;;;;;;;27.60;68.30;;;;;;6189516;22;19919;-95
2022/08/15 14:09:40;;;;;;;;;;;27.70;69.70;;;;;;6181470;22;19915;-94
2022/08/15 14:12:07;;;;;;;;;;;27.80;68.90;;;;;;6187267;23;19989;-94
2022/08/15 14:14:35;;;;;;;;;;;27.90;69.00;;;;;;6201734;22;19974;-95
2022/08/15 14:17:04;;;;;;;;;;;28.00;68.00;;;;;;6240057;22;19924;-94
2022/08/15 14:19:32;;;;;;;;;;;28.20;68.10;;;;;;6187332;22;20032;-94
2022/08/15 14:21:59;;;;;;;;;;;28.40;67.20;;;;;;6188790;22;20252;-94
2022/08/15 14:24:27;;;;;;;;;;;28.60;67.50;;;;;;6187845;22;20592;-96
2022/08/15 14:27:22;;;;;;;;;;;28.80;65.90;;;;;;6247432;22;19990;-93
2022/08/15 14:29:52;;;;;;;;;;;29.00;65.60;;;;;;6194655;22;20394;-95
2022/08/15 14:32:19;;;;;;;;;;;29.00;63.50;;;;;;6211494;23;19919;-94
2022/08/15 14:34:48;;;;;;;;;;;29.00;62.50;;;;;;6199710;23;19916;-95
2022/08/15 14:37:23;;;;;;;;;;;28.90;62.80;;;;;;6156201;23;19967;-94
2022/08/15 14:39:52;;;;;;;;;;;28.90;63.10;;;;;;6209120;23;20414;-93
2022/08/15 14:42:22;;;;;;;;;;;28.90;62.50;;;;;;6183302;23;20328;-95
2022/08/15 14:44:52;;;;;;;;;;;28.90;62.80;;;;;;6208618;23;19916;-94
2022/08/15 14:47:18;;;;;;;;;;;28.90;63.00;;;;;;6234621;23;19919;-95
2022/08/15 14:50:01;;;;;;;;;;;;;;;;;;;;;
2022/08/15 14:52:30;;;;;;;;;;;28.90;63.40;;;;;;6209071;23;19923;-94
2022/08/15 14:54:59;;;;;;;;;;;28.90;64.10;;;;;;6213127;23;19920;-96
2022/08/15 14:57:28;;;;;;;;;;;29.00;62.80;;;;;;6207454;23;20481;-94
2022/08/15 15:00:09;;;;;;;;;;;29.10;63.40;;;;;;6213236;23;20458;-95
2022/08/15 15:02:36;;;;;;;;;;;29.00;61.70;;;;;;6188275;22;19953;-94
2022/08/15 15:05:05;;;;;;;;;;;29.00;61.60;;;;;;6188153;22;19919;-95
2022/08/15 15:07:33;;;;;;;;;;;29.00;63.50;;;;;;6210556;22;19924;-94
2022/08/15 15:09:58;;;;;;;;;;;29.00;63.40;;;;;;6190767;22;20262;-94
2022/08/15 15:12:26;;;;;;;;;;;29.10;61.70;;;;;;6191303;22;19918;-94
2022/08/15 15:15:16;;;;;;;;;;;29.20;62.50;;;;;;6192784;22;20291;-92
2022/08/15 15:18:04;;;;;;;;;;;29.30;61.10;;;;;;6189346;23;20795;-94
2022/08/15 15:20:32;;;;;;;;;;;29.40;58.50;;;;;;6164762;23;20002;-96
2022/08/15 15:23:06;;;;;;;;;;;29.40;59.30;;;;;;6182985;23;20541;-96
2022/08/15 15:25:36;;;;;;;;;;;29.40;58.10;;;;;;6180617;23;19927;-96
2022/08/15 15:28:20;;;;;;;;;;;29.40;58.30;;;;;;6207435;23;20458;-93
2022/08/15 15:30:58;;;;;;;;;;;29.40;58.90;;;;;;6206033;23;19966;-94
2022/08/15 15:33:28;;;;;;;;;;;29.40;57.80;;;;;;6199877;23;19926;-96
2022/08/15 15:35:56;;;;;;;;;;;29.40;56.70;;;;;;6169874;23;19927;-94
2022/08/15 15:38:34;;;;;;;;;;;29.50;56.40;;;;;;6198093;23;19919;-95
2022/08/15 15:41:17;;;;;;;;;;;29.60;56.00;;;;;;6215577;23;19927;-95
2022/08/15 15:43:46;;;;;;;;;;;29.70;56.00;;;;;;6210794;23;19919;-95
2022/08/15 15:46:24;;;;;;;;;;;29.70;55.30;;;;;;6181235;23;19915;-94
2022/08/15 16:05:11;;;;;;;;;;;29.90;52.80;;;;;;6190539;23;19924;-84
2022/08/15 16:08:09;;;;;;;;;;;30.00;51.80;;;;;;6173088;23;20401;-83
2022/08/15 16:11:15;;;;;;;;;;;29.90;52.20;;;;;;6124193;23;19926;-83
2022/08/15 16:14:24;;;;;;;;;;;;;;;;;;;;;
2022/08/15 16:17:30;;;;;;;;;;;29.90;51.70;;;;;;6132301;23;19924;-84
2022/08/15 16:20:35;;;;;;;;;;;29.80;51.50;;;;;;6133284;23;20363;-83
2022/08/15 16:23:28;;;;;;;;;;;29.60;51.80;;;;;;6161735;23;19921;-82
2022/08/15 16:29:58;;;;;;;;;;;;;;;;;;;;;
2022/08/15 16:33:02;;;;;;;;;;;29.10;52.30;;;;;;6011126;23;19978;-83
2022/08/15 16:36:30;;;;;;;;;;;;;;;;;;;;;
2022/08/15 16:38:43;;;;;;;;;;;;;;;;;;;;;
2022/08/15 18:26:45;;;;;;;;;;;25.70;74.60;;;;;;6292844;22;19921;-81
2022/08/15 18:57:41;;;;;;;;;;;24.70;80.50;;;;;;6256216;22;19927;-81
2022/08/15 19:00:26;;;;;;;;;;;24.60;82.50;;;;;;6233620;22;19923;-82
2022/08/15 19:06:46;;;;;;;;;;;;;;;;;;;;;
2022/08/15 19:16:48;;;;;;;;;;;;;;;;;;;;;
2022/08/15 19:19:55;;;;;;;;;;;24.20;86.20;;;;;;6182129;23;20027;-86
2022/08/15 19:22:25;;;;;;;;;;;24.00;87.80;;;;;;6116341;23;20338;-87
2022/08/15 19:31:09;;;;;;;;;;;23.90;89.60;;;;;;6251772;22;19926;-83
2022/08/15 19:33:40;;;;;;;;;;;23.80;90.00;;;;;;6198390;22;19935;-83
2022/08/15 19:36:27;;;;;;;;;;;23.80;89.80;;;;;;6180769;22;20006;-82
2022/08/15 19:39:08;;;;;;;;;;;23.80;90.50;;;;;;6199565;22;19919;-82
2022/08/15 19:41:55;;;;;;;;;;;23.70;90.30;;;;;;6177601;22;20323;-82
2022/08/15 19:44:24;;;;;;;;;;;23.70;89.30;;;;;;6205133;22;19919;-82
2022/08/15 19:46:55;;;;;;;;;;;23.60;89.70;;;;;;6206052;22;20351;-82
2022/08/15 19:52:38;;;;;;;;;;;;;;;;;;;;;
2022/08/15 19:55:40;;;;;;;;;;;23.60;91.70;;;;;;6294811;22;19919;-81
2022/08/15 20:04:55;;;;;;;;;;;23.40;91.60;;;;;;6223030;23;20302;-80
2022/08/15 20:08:09;;;;;;;;;;;23.30;91.60;;;;;;6199888;23;19921;-80
2022/08/15 20:28:13;;;;;;;;;;;;;;;;;;;;;
2022/08/15 20:31:20;;;;;;;;;;;;;;;;;;;;;
2022/08/15 20:37:28;;;;;;;;;;;22.90;94.50;;;;;;6203180;22;19930;-96
2022/08/15 20:39:58;;;;;;;;;;;23.00;93.60;;;;;;6130113;23;19947;-96
2022/08/15 20:42:35;;;;;;;;;;;23.00;93.80;;;;;;6142736;23;19928;-96
2022/08/15 20:45:13;;;;;;;;;;;23.00;94.00;;;;;;6173114;23;19920;-96
2022/08/15 20:47:45;;;;;;;;;;;22.90;94.00;;;;;;6172741;23;19934;-96
2022/08/15 20:50:14;;;;;;;;;;;22.90;94.70;;;;;;6191426;23;19945;-96
2022/08/15 20:52:49;;;;;;;;;;;22.90;94.30;;;;;;6145307;23;20000;-95
2022/08/15 20:55:37;;;;;;;;;;;22.90;95.30;;;;;;6177438;23;19916;-96
2022/08/15 20:58:35;;;;;;;;;;;22.70;94.60;;;;;;6176781;23;19920;-96
2022/08/15 21:01:04;;;;;;;;;;;22.80;95.00;;;;;;6173759;23;20253;-96
2022/08/15 21:03:30;;;;;;;;;;;22.80;93.90;;;;;;6163065;23;20359;-96
2022/08/15 21:06:20;;;;;;;;;;;22.90;94.80;;;;;;6104730;23;19928;-96
2022/08/15 21:09:01;;;;;;;;;;;22.70;95.20;;;;;;6108217;23;19928;-96
2022/08/15 21:11:43;;;;;;;;;;;22.70;95.90;;;;;;6083939;23;19921;-96
2022/08/15 21:14:40;;;;;;;;;;;22.70;96.00;;;;;;6074788;23;19917;-96
2022/08/15 21:17:24;;;;;;;;;;;22.70;95.30;;;;;;6043136;23;19921;-96
2022/08/15 21:20:09;;;;;;;;;;;22.60;95.40;;;;;;6044240;23;19921;-96
2022/08/15 21:22:58;;;;;;;;;;;22.60;95.60;;;;;;6093595;23;20645;-96
2022/08/15 21:25:44;;;;;;;;;;;22.60;95.60;;;;;;6064587;23;19917;-96
2022/08/15 21:28:37;;;;;;;;;;;22.60;95.60;;;;;;6066525;23;19968;-96
2022/08/15 21:31:26;;;;;;;;;;;22.50;95.50;;;;;;6061430;23;20000;-96
2022/08/15 21:34:11;;;;;;;;;;;22.50;95.10;;;;;;6065384;23;19921;-96
2022/08/15 21:36:40;;;;;;;;;;;22.50;94.60;;;;;;6085386;23;19932;-96
2022/08/15 21:39:34;;;;;;;;;;;22.50;94.60;;;;;;6180334;23;19920;-95
2022/08/15 21:42:23;;;;;;;;;;;22.50;95.00;;;;;;6157529;23;19927;-96
2022/08/15 21:45:06;;;;;;;;;;;22.50;94.80;;;;;;6130897;23;19944;-96
2022/08/15 21:47:44;;;;;;;;;;;22.40;95.30;;;;;;6128822;23;19923;-96
2022/08/15 21:50:33;;;;;;;;;;;22.40;96.60;;;;;;6149031;23;19951;-95
2022/08/15 21:53:05;;;;;;;;;;;22.40;96.40;;;;;;6149211;23;19920;-96
2022/08/15 21:55:36;;;;;;;;;;;22.40;95.10;;;;;;6122466;23;19928;-96
2022/08/15 21:58:23;;;;;;;;;;;22.40;95.50;;;;;;6151088;23;19917;-96
2022/08/15 22:00:51;;;;;;;;;;;22.40;96.60;;;;;;6149178;23;19926;-96
2022/08/15 22:03:36;;;;;;;;;;;22.40;95.90;;;;;;6125087;23;19923;-96
2022/08/15 22:06:06;;;;;;;;;;;22.50;96.90;;;;;;6148711;23;19927;-96
2022/08/15 22:08:33;;;;;;;;;;;22.40;97.10;;;;;;6099103;23;19926;-96
2022/08/15 22:11:01;;;;;;;;;;;22.40;97.60;;;;;;6174596;23;20032;-95
2022/08/15 22:13:27;;;;;;;;;;;22.40;97.20;;;;;;6125698;23;19948;-96
2022/08/15 22:15:54;;;;;;;;;;;22.40;97.10;;;;;;6126592;23;19931;-95
2022/08/15 22:18:21;;;;;;;;;;;22.40;97.50;;;;;;6124623;23;19920;-96
2022/08/15 22:20:52;;;;;;;;;;;22.40;98.50;;;;;;6126554;23;19945;-95
2022/08/15 22:23:20;;;;;;;;;;;22.40;97.60;;;;;;6126393;23;19985;-96
2022/08/15 22:25:48;;;;;;;;;;;22.40;98.00;;;;;;6126558;23;19916;-95
2022/08/15 22:28:14;;;;;;;;;;;22.40;98.20;;;;;;6126694;23;19974;-95
2022/08/15 22:30:41;;;;;;;;;;;22.30;98.40;;;;;;6150583;23;19979;-95
2022/08/15 22:33:09;;;;;;;;;;;22.30;99.30;;;;;;6125815;23;20684;-96
2022/08/15 22:35:39;;;;;;;;;;;22.40;99.20;;;;;;6122262;23;20392;-96
2022/08/15 22:38:06;;;;;;;;;;;22.30;99.90;;;;;;6100217;23;19924;-96
2022/08/15 22:40:33;;;;;;;;;;;22.30;99.90;;;;;;6126271;23;19927;-96
2022/08/15 22:43:10;;;;;;;;;;;22.30;99.90;;;;;;6130534;23;19920;-96
2022/08/15 22:45:49;;;;;;;;;;;22.30;99.90;;;;;;6132961;23;19987;-96
2022/08/15 22:48:20;;;;;;;;;;;22.20;99.90;;;;;;6133149;23;19920;-96
2022/08/15 22:50:54;;;;;;;;;;;22.20;99.90;;;;;;6130284;23;19923;-96
2022/08/15 22:53:22;;;;;;;;;;;22.10;99.90;;;;;;6127458;23;19916;-96
2022/08/15 22:55:49;;;;;;;;;;;22.00;99.90;;;;;;6152524;23;19924;-96
2022/08/15 22:58:14;;;;;;;;;;;22.00;99.90;;;;;;6126203;23;19928;-96
2022/08/15 23:00:45;;;;;;;;;;;22.00;99.90;;;;;;6125869;23;19931;-96
2022/08/15 23:03:13;;;;;;;;;;;21.90;99.90;;;;;;6127201;23;19916;-96
2022/08/15 23:05:43;;;;;;;;;;;21.90;99.90;;;;;;6125330;23;20384;-96
2022/08/15 23:08:40;;;;;;;;;;;21.90;99.90;;;;;;6126005;23;20003;-96
2022/08/15 23:11:36;;;;;;;;;;;;;;;;;;;;;
2022/08/15 23:14:18;;;;;;;;;;;21.90;99.90;;;;;;6086671;23;19928;-96
2022/08/15 23:16:53;;;;;;;;;;;21.80;99.90;;;;;;6048142;23;19920;-96
2022/08/15 23:19:28;;;;;;;;;;;21.90;99.90;;;;;;6042584;23;19929;-96
2022/08/15 23:22:05;;;;;;;;;;;21.70;99.90;;;;;;6071424;23;19948;-96
2022/08/15 23:24:34;;;;;;;;;;;21.70;99.90;;;;;;6041644;23;19929;-96
2022/08/15 23:27:40;;;;;;;;;;;21.70;99.90;;;;;;6069590;23;19917;-96
2022/08/15 23:30:21;;;;;;;;;;;;;;;;;;;;;
2022/08/15 23:33:00;;;;;;;;;;;21.60;99.90;;;;;;6072059;23;19928;-96
2022/08/15 23:35:33;;;;;;;;;;;21.60;99.90;;;;;;6045771;23;19925;-96
2022/08/15 23:38:13;;;;;;;;;;;21.50;99.90;;;;;;6020736;23;20397;-96
2022/08/15 23:40:50;;;;;;;;;;;21.50;99.90;;;;;;6008529;23;19918;-96
2022/08/15 23:43:31;;;;;;;;;;;21.50;99.90;;;;;;6007424;23;19929;-96
2022/08/15 23:46:01;;;;;;;;;;;21.50;99.90;;;;;;6081931;23;19921;-96
2022/08/15 23:48:50;;;;;;;;;;;21.60;99.90;;;;;;6118446;23;19967;-96
